To NAV CANADA Home Page Login to a new session Search on AWWS site Feedback and Comments Disclaimer Vers la page française équivalente Tips FAQ What's new on the site To the Forecasts and Observations / NOTAM section To "File a Flight Plan" website Publications and other links Update of the User's profile FIC Telephone Numbers My Weather Data Folder Route Weather Data Regional Weather Data Local Weather Data To the Forecasts and Observations / NOTAM section
Request Generated 12/04/2016 at 22:19:45 UTC . Weather information available at that time is displayed.

METAR/TAF

BRANDON MUNICIPALITY/MB    

METAR CYBR 042200Z 30012KT 12SM -SN OVC011 M03/M04 A2962 RMK SC8
SLP055=
METAR CYBR 042100Z 29014KT 12SM -SN OVC012 M02/M04 A2961 RMK SC8
SLP052=
SPECI CYBR 042042Z 30013KT 12SM -SN BKN013 OVC045 M02/M04 A2961 RMK
SC7SC1 SLP050=
METAR CYBR 042000Z 30014KT 10SM -SN BKN015 OVC045 M02/M04 A2961 RMK
SC5SC3 SLP051=

TAF CYBR 041738Z 0418/0506 30010KT 1SM -SN BKN015 OVC030 TEMPO
0418/0420 4SM -SN BR SCT015 OVC030
FM042000 27010KT P6SM OVC015 TEMPO 0420/0506 4SM -SN BR OVC006
BECMG 0503/0505 12005KT
RMK NXT FCST BY 050000Z=
Your time UTC time
Weather data provided by Environment Canada and NAV CANADA